createdAt,value
2024-03-06T00:02:21.105Z,40.20
2024-03-06T00:04:48.776Z,32.65
2024-03-06T00:07:16.689Z,41.53
2024-03-06T00:09:43.996Z,35.25
2024-03-06T00:12:17.698Z,37.10
2024-03-06T00:14:45.279Z,41.92
2024-03-06T00:19:45.332Z,33.17
2024-03-06T00:22:18.532Z,43.72
2024-03-06T00:24:54.459Z,40.58
2024-03-06T00:27:23.559Z,38.65
2024-03-06T00:29:51.000Z,35.90
2024-03-06T00:32:22.898Z,37.53
2024-03-06T00:34:50.460Z,41.03
2024-03-06T00:37:18.262Z,41.72
2024-03-06T00:39:45.438Z,39.58
2024-03-06T00:42:15.525Z,38.47
2024-03-06T00:44:53.857Z,39.88
2024-03-06T00:47:27.823Z,38.65
2024-03-06T00:49:58.046Z,39.17
2024-03-06T00:52:25.679Z,41.80
2024-03-06T00:54:56.159Z,44.03
2024-03-06T00:57:28.404Z,41.40
2024-03-06T01:00:01.015Z,46.92
2024-03-06T01:02:30.715Z,43.88
2024-03-06T01:04:58.154Z,40.45
2024-03-06T01:07:25.862Z,42.72
2024-03-06T01:09:53.415Z,45.70
2024-03-06T01:12:21.195Z,39.63
2024-03-06T01:14:50.939Z,34.30
2024-03-06T01:17:20.401Z,39.03
2024-03-06T01:19:49.952Z,39.67
2024-03-06T01:22:24.539Z,38.10
2024-03-06T01:24:51.954Z,38.05
2024-03-06T01:27:19.715Z,40.30
2024-03-06T01:29:47.118Z,37.72
2024-03-06T01:32:14.952Z,38.38
2024-03-06T01:34:46.870Z,40.60
2024-03-06T01:37:18.997Z,45.55
2024-03-06T01:39:48.349Z,44.08
2024-03-06T01:42:20.995Z,44.63
2024-03-06T01:44:48.298Z,45.65
2024-03-06T01:47:16.261Z,43.55
2024-03-06T01:49:45.844Z,44.85
2024-03-06T01:52:17.310Z,38.00
2024-03-06T01:54:46.114Z,43.53
2024-03-06T01:57:20.253Z,46.88
2024-03-06T01:59:48.621Z,47.72
2024-03-06T02:02:16.580Z,44.42
2024-03-06T02:04:45.279Z,42.97
2024-03-06T02:07:21.839Z,45.05
2024-03-06T02:09:49.374Z,42.28
2024-03-06T02:12:21.973Z,44.92
2024-03-06T02:14:49.494Z,46.13
2024-03-06T02:17:17.178Z,46.42
2024-03-06T02:19:51.091Z,47.38
2024-03-06T02:22:20.278Z,45.17
2024-03-06T02:24:52.398Z,49.80
2024-03-06T02:27:20.034Z,48.80
2024-03-06T02:29:47.578Z,43.53
2024-03-06T02:32:15.643Z,45.88
2024-03-06T02:34:43.356Z,45.05
2024-03-06T02:37:15.987Z,45.90
2024-03-06T02:39:44.831Z,46.28
2024-03-06T02:42:17.093Z,44.58
2024-03-06T02:44:50.421Z,55.63
2024-03-06T02:47:18.242Z,42.97
2024-03-06T02:49:45.643Z,49.25
2024-03-06T02:52:17.947Z,47.75
2024-03-06T02:54:50.980Z,45.75
2024-03-06T02:57:21.573Z,53.65
2024-03-06T02:59:49.009Z,49.38
2024-03-06T03:02:16.780Z,54.83
2024-03-06T03:04:48.423Z,50.63
2024-03-06T03:07:21.141Z,48.28
2024-03-06T03:09:55.986Z,57.90
2024-03-06T03:12:26.157Z,48.78
2024-03-06T03:14:55.329Z,51.42
2024-03-06T03:17:23.183Z,53.25
2024-03-06T03:19:50.606Z,41.28
2024-03-06T03:22:24.681Z,42.25
2024-03-06T03:24:56.961Z,41.55
2024-03-06T03:27:24.677Z,37.67
2024-03-06T03:29:55.064Z,38.75
2024-03-06T03:32:26.952Z,34.92
2024-03-06T03:34:54.917Z,41.55
2024-03-06T03:37:31.471Z,38.22
2024-03-06T03:40:06.447Z,34.55
2024-03-06T03:42:39.012Z,42.58
2024-03-06T03:45:07.000Z,42.25
2024-03-06T03:47:38.885Z,42.65
2024-03-06T03:50:10.848Z,44.10
2024-03-06T03:52:42.169Z,47.15
2024-03-06T03:55:11.261Z,46.47
2024-03-06T03:57:38.997Z,46.83
2024-03-06T04:00:07.745Z,47.10
2024-03-06T04:02:35.579Z,43.13
2024-03-06T04:05:05.858Z,48.22
2024-03-06T04:07:38.400Z,44.17
2024-03-06T04:10:07.135Z,44.00
2024-03-06T04:12:40.067Z,39.80
2024-03-06T04:15:10.701Z,47.72
2024-03-06T04:17:38.609Z,43.28
2024-03-06T04:20:06.690Z,47.13
2024-03-06T04:22:34.552Z,41.00
2024-03-06T04:25:06.454Z,44.67
2024-03-06T04:27:39.459Z,57.97
2024-03-06T04:30:08.113Z,59.67
2024-03-06T04:32:35.997Z,50.30
2024-03-06T04:35:03.460Z,51.92
2024-03-06T04:37:31.310Z,56.42
2024-03-06T04:40:02.061Z,46.30
2024-03-06T04:42:29.946Z,48.78
2024-03-06T04:44:58.741Z,47.15
2024-03-06T04:47:30.079Z,44.70
2024-03-06T04:49:57.984Z,46.25
2024-03-06T04:52:27.251Z,49.13
2024-03-06T04:54:59.458Z,41.92
2024-03-06T04:57:27.200Z,42.00
2024-03-06T04:59:56.053Z,44.95
2024-03-06T05:02:25.780Z,47.83
2024-03-06T06:00:34.106Z,39.15
2024-03-06T06:03:11.400Z,44.55
2024-03-06T06:05:39.065Z,44.85
2024-03-06T06:08:12.424Z,45.17
2024-03-06T06:10:44.450Z,49.15
2024-03-06T06:13:12.244Z,52.83
2024-03-06T06:15:40.161Z,50.92
2024-03-06T06:18:08.095Z,51.42
2024-03-06T06:20:35.826Z,57.42
2024-03-06T06:23:16.112Z,74.30
2024-03-06T06:25:43.684Z,61.13
2024-03-06T06:28:11.409Z,61.60
2024-03-06T06:30:38.762Z,63.40
2024-03-06T06:33:11.071Z,53.88
2024-03-06T06:35:38.798Z,55.28
2024-03-06T06:38:12.896Z,53.47
2024-03-06T06:40:40.363Z,47.80
2024-03-06T06:43:08.343Z,48.17
2024-03-06T06:45:37.984Z,41.88
2024-03-06T06:48:06.380Z,40.13
2024-03-06T06:50:33.843Z,42.53
2024-03-06T06:53:06.043Z,40.42
2024-03-06T06:55:38.993Z,40.72
2024-03-06T06:58:06.848Z,41.53
2024-03-06T07:00:35.052Z,41.35
2024-03-06T07:03:02.812Z,41.22
2024-03-06T07:05:30.337Z,44.50
2024-03-06T07:07:58.202Z,38.17
2024-03-06T07:10:25.631Z,43.55
2024-03-06T07:12:54.790Z,46.17
2024-03-06T07:15:22.172Z,45.25
2024-03-06T07:17:50.293Z,41.83
2024-03-06T07:20:18.144Z,39.72
2024-03-06T07:22:46.325Z,45.67
2024-03-06T07:25:16.479Z,37.42
2024-03-06T07:27:44.568Z,36.17
2024-03-06T07:30:15.120Z,40.40
2024-03-06T07:32:48.339Z,37.92
2024-03-06T07:35:16.138Z,42.92
2024-03-06T07:37:44.072Z,39.38
2024-03-06T07:40:12.016Z,41.78
2024-03-06T07:42:39.860Z,42.60
2024-03-06T07:45:07.906Z,43.50
2024-03-06T07:47:38.830Z,39.47
2024-03-06T07:50:12.532Z,39.67
2024-03-06T07:52:40.482Z,40.85
2024-03-06T07:55:10.484Z,42.45
2024-03-06T07:57:38.207Z,43.35
2024-03-06T08:00:06.951Z,38.70
2024-03-06T08:02:36.646Z,38.45
2024-03-06T08:05:10.350Z,34.20
2024-03-06T08:07:38.563Z,35.78
2024-03-06T08:10:06.694Z,32.90
2024-03-06T08:12:34.296Z,30.98
2024-03-06T08:15:02.380Z,30.73
2024-03-06T08:17:30.226Z,33.72
2024-03-06T08:20:00.734Z,33.90
2024-03-06T08:22:34.247Z,30.92
2024-03-06T08:25:07.499Z,31.88
2024-03-06T08:27:35.756Z,32.58
2024-03-06T08:30:03.419Z,29.92
2024-03-06T08:32:35.579Z,35.15
2024-03-06T08:37:32.591Z,32.10
2024-03-06T08:40:00.663Z,33.33
2024-03-06T08:42:30.953Z,33.22
2024-03-06T08:44:58.582Z,34.63
2024-03-06T08:47:26.253Z,27.58
2024-03-06T08:49:54.203Z,28.75
2024-03-06T08:52:21.635Z,26.85
2024-03-06T08:54:54.184Z,27.30
2024-03-06T08:57:24.856Z,26.15
2024-03-06T08:59:53.393Z,26.88
2024-03-06T09:02:25.013Z,25.83
2024-03-06T09:04:53.492Z,27.35
2024-03-06T09:07:21.358Z,27.48
2024-03-06T09:09:50.554Z,26.33
2024-03-06T09:12:23.443Z,21.95
2024-03-06T09:17:25.098Z,21.33
2024-03-06T09:20:00.444Z,21.42
2024-03-06T09:22:36.461Z,18.75
2024-03-06T09:25:08.913Z,22.77
2024-03-06T09:27:36.937Z,19.92
2024-03-06T09:30:05.122Z,24.35
2024-03-06T09:32:35.084Z,20.80
2024-03-06T09:35:02.879Z,24.15
2024-03-06T09:37:30.417Z,23.00
2024-03-06T09:39:58.214Z,20.75
2024-03-06T09:42:27.555Z,21.30
2024-03-06T09:44:55.125Z,23.25
2024-03-06T09:47:26.765Z,23.63
2024-03-06T09:50:00.557Z,20.63
2024-03-06T09:52:28.037Z,19.30
2024-03-06T09:54:57.363Z,21.42
2024-03-06T09:57:25.350Z,20.52
2024-03-06T10:00:02.459Z,20.33
2024-03-06T10:02:37.931Z,21.35
2024-03-06T10:05:06.329Z,21.95
2024-03-06T10:07:34.782Z,22.55
2024-03-06T10:10:06.192Z,24.30
2024-03-06T10:12:33.814Z,20.88
2024-03-06T10:15:12.496Z,21.88
2024-03-06T10:17:47.231Z,18.85
2024-03-06T10:20:24.197Z,23.08
2024-03-06T10:22:56.235Z,16.98
2024-03-06T10:25:27.548Z,19.10
2024-03-06T10:28:12.476Z,20.13
2024-03-06T10:30:46.271Z,21.63
2024-03-06T10:33:15.192Z,20.77
2024-03-06T10:35:44.348Z,18.33
2024-03-06T10:38:12.751Z,20.02
2024-03-06T10:40:41.236Z,15.55
2024-03-06T10:43:10.147Z,16.95
2024-03-06T10:45:47.805Z,13.77
2024-03-06T10:48:16.432Z,15.38
2024-03-06T10:50:47.780Z,16.65
2024-03-06T10:53:21.015Z,15.88
2024-03-06T10:55:51.531Z,18.25
2024-03-06T10:58:21.295Z,21.98
2024-03-06T11:00:55.237Z,20.40
2024-03-06T11:03:23.193Z,17.25
2024-03-06T11:05:50.560Z,18.10
2024-03-06T11:08:20.500Z,16.70
2024-03-06T11:10:48.408Z,19.42
2024-03-06T11:13:25.309Z,20.20
2024-03-06T11:15:59.592Z,17.23
2024-03-06T11:18:42.995Z,15.18
2024-03-06T11:21:29.602Z,14.13
2024-03-06T11:24:24.423Z,13.02
2024-03-06T11:26:57.105Z,13.55
2024-03-06T11:32:13.784Z,13.07
2024-03-06T11:34:44.480Z,18.15
2024-03-06T11:37:12.160Z,18.98
2024-03-06T11:39:43.012Z,20.27
2024-03-06T11:42:12.404Z,16.77
2024-03-06T11:44:58.847Z,19.63
2024-03-06T11:47:36.549Z,17.08
2024-03-06T11:50:04.553Z,18.08
2024-03-06T11:52:32.358Z,15.23
2024-03-06T11:54:59.889Z,15.98
2024-03-06T11:57:28.552Z,16.30
2024-03-06T11:59:56.413Z,17.80
2024-03-06T12:02:23.955Z,19.70
2024-03-06T12:04:58.127Z,21.80
2024-03-06T12:07:28.770Z,19.50
2024-03-06T12:09:58.449Z,19.45
2024-03-06T12:12:25.847Z,18.73
2024-03-06T12:15:04.487Z,15.50
2024-03-06T12:17:32.045Z,15.35
2024-03-06T12:20:01.828Z,17.42
2024-03-06T12:22:29.480Z,13.80
2024-03-06T12:25:00.867Z,15.13
2024-03-06T12:27:28.641Z,18.85
2024-03-06T12:29:56.875Z,19.42
2024-03-06T12:32:24.577Z,16.52
2024-03-06T12:35:00.371Z,16.40
2024-03-06T12:37:36.463Z,23.20
2024-03-06T12:40:09.465Z,22.90
2024-03-06T12:42:37.000Z,19.90
2024-03-06T12:45:05.824Z,18.60
2024-03-06T12:47:33.281Z,17.35
2024-03-06T12:50:00.929Z,22.38
2024-03-06T12:52:33.400Z,21.67
2024-03-06T12:55:00.900Z,20.55
2024-03-06T12:57:33.997Z,36.63
2024-03-06T13:00:04.656Z,19.38
2024-03-06T13:02:32.052Z,20.48
2024-03-06T13:04:59.514Z,18.67
2024-03-06T13:07:27.222Z,22.00
2024-03-06T13:10:05.973Z,19.58
2024-03-06T13:12:34.147Z,22.40
2024-03-06T13:15:01.583Z,18.25
2024-03-06T13:17:31.715Z,20.38
2024-03-06T13:19:59.493Z,18.38
2024-03-06T13:22:26.864Z,16.23
2024-03-06T13:24:54.334Z,16.25
2024-03-06T13:27:29.118Z,20.52
2024-03-06T13:29:59.611Z,19.42
2024-03-06T13:32:31.517Z,19.85
2024-03-06T13:34:58.983Z,18.45
2024-03-06T13:37:26.310Z,23.13
2024-03-06T13:39:54.151Z,18.13
2024-03-06T13:42:21.736Z,18.08
2024-03-06T13:44:54.049Z,17.13
2024-03-06T13:47:21.877Z,15.73
2024-03-06T13:49:52.189Z,17.95
2024-03-06T13:52:24.434Z,19.45
2024-03-06T13:54:53.210Z,15.85
2024-03-06T13:57:20.567Z,19.08
2024-03-06T14:00:02.476Z,18.98
2024-03-06T14:02:30.323Z,18.80
2024-03-06T14:05:02.538Z,19.63
2024-03-06T14:07:33.255Z,19.58
2024-03-06T14:10:04.214Z,19.50
2024-03-06T14:12:36.933Z,19.27
2024-03-06T14:15:11.043Z,21.65
2024-03-06T14:17:38.444Z,19.88
2024-03-06T14:20:07.133Z,17.77
2024-03-06T14:22:34.683Z,19.80
2024-03-06T14:25:02.107Z,17.52
2024-03-06T14:27:29.823Z,19.13
2024-03-06T14:29:59.195Z,19.38
2024-03-06T14:32:32.200Z,19.65
2024-03-06T14:35:00.241Z,20.80
2024-03-06T14:37:27.547Z,20.30
2024-03-06T14:39:57.672Z,22.88
2024-03-06T14:42:25.567Z,21.92
2024-03-06T14:44:52.981Z,21.58
2024-03-06T14:47:24.613Z,21.92
2024-03-06T14:50:01.498Z,23.77
2024-03-06T14:52:29.137Z,21.10
2024-03-06T14:55:00.318Z,23.83
2024-03-06T14:57:32.517Z,22.45
2024-03-06T15:00:00.684Z,20.05
2024-03-06T15:02:34.678Z,19.45
2024-03-06T15:05:08.434Z,22.50
2024-03-06T15:07:35.994Z,21.13
2024-03-06T15:10:04.363Z,19.90
2024-03-06T15:12:36.477Z,19.65
2024-03-06T15:15:10.517Z,18.33
2024-03-06T15:17:42.512Z,19.98
2024-03-06T15:20:16.071Z,19.52
2024-03-06T15:22:50.482Z,18.83
2024-03-06T15:25:23.237Z,22.55
2024-03-06T15:27:55.475Z,22.65
2024-03-06T15:30:30.478Z,22.25
2024-03-06T15:35:27.425Z,19.73
2024-03-06T15:37:54.908Z,22.58
2024-03-06T15:40:22.740Z,20.23
2024-03-06T15:42:54.258Z,22.30
2024-03-06T15:45:23.140Z,26.58
2024-03-06T15:47:51.169Z,25.50
2024-03-06T15:50:18.829Z,22.70
2024-03-06T15:52:52.049Z,25.70
2024-03-06T15:55:24.546Z,25.25
2024-03-06T15:57:51.981Z,27.25
2024-03-06T16:00:25.468Z,23.98
2024-03-06T16:02:53.859Z,20.50
2024-03-06T16:05:27.606Z,21.40
2024-03-06T16:08:05.272Z,19.33
2024-03-06T16:10:41.483Z,22.48
2024-03-06T16:13:12.295Z,22.67
2024-03-06T16:15:39.801Z,21.52
2024-03-06T16:18:11.958Z,24.92
2024-03-06T16:20:45.287Z,22.65
2024-03-06T16:23:19.640Z,25.75
2024-03-06T16:25:54.793Z,28.05
2024-03-06T16:28:31.732Z,26.58
2024-03-06T16:31:00.197Z,21.50
2024-03-06T16:33:27.819Z,23.85
2024-03-06T16:35:56.439Z,22.63
2024-03-06T16:38:26.891Z,23.85
2024-03-06T16:40:54.781Z,25.02
2024-03-06T16:43:23.004Z,25.23
2024-03-06T16:45:51.371Z,27.90
2024-03-06T16:48:19.048Z,25.80
2024-03-06T16:50:46.936Z,26.60
2024-03-06T16:53:14.613Z,26.00
2024-03-06T16:55:48.572Z,22.02
2024-03-06T16:58:24.377Z,21.73
2024-03-06T17:00:56.811Z,25.88
2024-03-06T17:03:24.970Z,26.50
2024-03-06T17:05:57.651Z,23.60
2024-03-06T17:08:29.495Z,24.00
2024-03-06T17:11:03.120Z,25.58
2024-03-06T17:13:35.818Z,28.20
2024-03-06T17:16:07.183Z,22.67
2024-03-06T17:18:35.420Z,26.52
2024-03-06T17:21:06.263Z,25.48
2024-03-06T17:23:33.787Z,26.73
2024-03-06T17:26:03.601Z,31.50
2024-03-06T17:28:31.540Z,26.50
2024-03-06T17:30:59.462Z,26.33
2024-03-06T17:33:27.261Z,29.77
2024-03-06T17:36:00.036Z,30.23
2024-03-06T17:38:33.551Z,29.27
2024-03-06T17:41:11.489Z,28.08
2024-03-06T17:43:39.209Z,27.50
2024-03-06T17:46:09.820Z,27.85
2024-03-06T17:48:40.283Z,27.90
2024-03-06T17:51:08.550Z,32.83
2024-03-06T17:53:38.797Z,32.83
2024-03-06T17:56:17.108Z,27.45
2024-03-06T17:58:46.842Z,27.83
2024-03-06T18:01:15.086Z,30.25
2024-03-06T18:03:46.417Z,30.85
2024-03-06T18:06:19.062Z,27.23
2024-03-06T18:08:49.106Z,30.38
2024-03-06T18:11:24.254Z,30.50
2024-03-06T18:13:52.263Z,28.35
2024-03-06T18:16:20.620Z,29.80
2024-03-06T18:18:51.174Z,30.17
2024-03-06T18:21:32.980Z,28.75
2024-03-06T18:24:05.720Z,27.88
2024-03-06T18:26:35.491Z,30.10
2024-03-06T18:29:22.515Z,30.40
2024-03-06T18:34:37.318Z,30.60
2024-03-06T18:37:09.593Z,25.17
2024-03-06T18:39:38.116Z,26.67
2024-03-06T18:42:20.602Z,35.38
2024-03-06T18:44:51.450Z,27.67
2024-03-06T18:47:25.564Z,31.33
2024-03-06T18:49:59.593Z,27.55
2024-03-06T18:52:49.900Z,31.35
2024-03-06T18:55:18.241Z,33.50
2024-03-06T18:57:55.830Z,34.90
2024-03-06T19:00:24.288Z,33.03
2024-03-06T19:02:58.566Z,33.88
2024-03-06T19:05:26.857Z,36.85
2024-03-06T19:08:33.015Z,37.38
2024-03-06T19:10:56.651Z,40.17
2024-03-06T19:13:57.412Z,39.22
2024-03-06T19:16:43.145Z,33.95
2024-03-06T19:19:31.354Z,39.50
2024-03-06T19:22:02.315Z,33.67
2024-03-06T19:24:37.632Z,36.15
2024-03-06T19:27:11.554Z,34.72
2024-03-06T19:29:50.314Z,41.10
2024-03-06T19:32:34.086Z,33.42
2024-03-06T19:35:09.433Z,36.33
2024-03-06T19:37:48.202Z,34.00
2024-03-06T19:40:33.013Z,36.28
2024-03-06T19:43:04.717Z,36.78
2024-03-06T19:45:50.523Z,39.15
2024-03-06T19:48:19.767Z,36.75
2024-03-06T19:51:02.002Z,45.83
2024-03-06T19:53:29.859Z,37.83
2024-03-06T19:56:04.682Z,41.35
2024-03-06T19:58:47.696Z,40.58
2024-03-06T20:01:28.332Z,44.42
2024-03-06T20:04:00.538Z,39.63
2024-03-06T20:06:33.558Z,42.67
2024-03-06T20:09:01.706Z,46.53
2024-03-06T20:11:41.086Z,50.05
2024-03-06T20:14:11.766Z,49.50
2024-03-06T20:16:41.568Z,44.58
2024-03-06T20:19:16.553Z,45.17
2024-03-06T20:21:45.319Z,46.15
2024-03-06T20:25:17.435Z,48.47
2024-03-06T20:27:41.277Z,45.95
2024-03-06T20:30:09.422Z,44.40
2024-03-06T20:32:39.933Z,44.08
2024-03-06T20:35:08.594Z,43.55
2024-03-06T20:37:41.262Z,41.55
2024-03-06T20:40:14.635Z,39.83
2024-03-06T20:42:43.744Z,40.40
2024-03-06T20:45:12.196Z,45.60
2024-03-06T20:47:46.741Z,46.50
2024-03-06T20:50:18.579Z,45.63
2024-03-06T20:52:53.889Z,37.20
2024-03-06T20:55:22.224Z,41.08
2024-03-06T20:57:50.255Z,39.90
2024-03-06T21:00:20.512Z,39.53
2024-03-06T21:02:58.107Z,33.08
2024-03-06T21:07:53.457Z,27.00
2024-03-06T21:10:20.969Z,35.90
2024-03-06T21:12:49.528Z,31.83
2024-03-06T21:15:17.481Z,33.22
2024-03-06T21:17:45.463Z,33.72
2024-03-06T21:20:18.196Z,33.17
2024-03-06T21:22:46.706Z,30.20
2024-03-06T21:25:14.818Z,30.77
2024-03-06T21:30:14.622Z,31.77
2024-03-06T21:32:45.390Z,33.47
2024-03-06T21:35:14.565Z,34.75
2024-03-06T21:37:42.855Z,34.45
2024-03-06T21:40:11.132Z,36.85
2024-03-06T21:42:39.077Z,34.42
2024-03-06T21:45:07.336Z,37.78
2024-03-06T21:47:35.148Z,37.45
2024-03-06T21:50:07.585Z,31.40
2024-03-06T21:52:36.633Z,32.95
2024-03-06T21:55:09.462Z,25.35
2024-03-06T21:57:36.846Z,32.15
2024-03-06T22:00:05.957Z,29.45
2024-03-06T22:02:40.516Z,31.80
2024-03-06T22:05:12.501Z,29.13
2024-03-06T22:07:41.316Z,33.75
2024-03-06T22:10:14.141Z,33.70
2024-03-06T22:12:44.428Z,32.58
2024-03-06T22:15:17.657Z,31.83
2024-03-06T22:20:21.382Z,24.83
2024-03-06T22:22:51.066Z,30.45
2024-03-06T22:25:19.207Z,28.30
2024-03-06T22:27:46.565Z,28.42
2024-03-06T22:30:24.447Z,33.03
2024-03-06T22:32:52.338Z,30.42
2024-03-06T22:35:20.216Z,27.08
2024-03-06T22:37:47.799Z,33.83
2024-03-06T22:40:20.913Z,30.75
2024-03-06T22:42:48.247Z,25.60
2024-03-06T22:45:15.924Z,32.47
2024-03-06T22:47:43.393Z,29.65
2024-03-06T22:50:15.950Z,33.92
2024-03-06T22:52:43.616Z,25.38
2024-03-06T22:55:11.349Z,30.77
2024-03-06T22:57:44.373Z,28.63
2024-03-06T23:00:18.047Z,34.10
2024-03-06T23:02:45.805Z,33.60
2024-03-06T23:05:25.620Z,28.63
2024-03-06T23:07:53.685Z,33.05
2024-03-06T23:10:21.881Z,33.42
2024-03-06T23:12:52.225Z,31.83
2024-03-06T23:15:25.117Z,28.55
2024-03-06T23:17:55.016Z,32.28
2024-03-06T23:20:23.082Z,35.05
2024-03-06T23:22:50.454Z,29.75
2024-03-06T23:25:18.622Z,30.98
2024-03-06T23:27:46.737Z,27.63
2024-03-06T23:30:17.442Z,29.67
2024-03-06T23:32:49.615Z,26.50
2024-03-06T23:35:17.566Z,24.15
2024-03-06T23:37:45.288Z,26.02
2024-03-06T23:40:16.709Z,32.58
2024-03-06T23:42:45.093Z,33.50
2024-03-06T23:45:14.375Z,26.23
2024-03-06T23:47:44.472Z,29.05
2024-03-06T23:50:13.309Z,32.65
2024-03-06T23:52:42.503Z,30.55
2024-03-06T23:55:11.148Z,33.50
2024-03-06T23:57:43.471Z,27.67
